Charm It Solutions Web Development Company Yellow Grapes

Himachal Pradesh Power Corporation Ltd, Integrated Kashang HEP Stage - I
HOME | WATER DISCHARGE DATA   |   CONTACT US   |   LOGOUT

Water Discharge Data


Lean Period Discharge Set Value (Cumecs):
0.3000
Date from: to:
Download this data
Online Water Discharge Live Data (Cumecs):

 
Date & Time FlowReleased(Cumecs) Actual Required Flow 15% Of Average Lean Period Discharge (in Cumecs) as per H.P.Govt. Notification
MinFlow(Cumecs)
Excess Released Remarks
2019-12-16 00:00:00 0.3260 0.3000 0.0260
2019-12-16 00:15:00 0.3020 0.3000 0.0020
2019-12-16 00:30:00 0.3010 0.3000 0.0010
2019-12-16 00:45:00 0.3110 0.3000 0.0110
2019-12-16 01:00:00 0.3090 0.3000 0.0090
2019-12-16 01:15:00 0.3370 0.3000 0.0370
2019-12-16 01:30:00 0.3170 0.3000 0.0170
2019-12-16 01:45:00 0.3300 0.3000 0.0300
2019-12-16 02:00:00 0.3380 0.3000 0.0380
2019-12-16 02:15:00 0.3000 0.3000 0.0000
2019-12-16 02:30:00 0.3070 0.3000 0.0070
2019-12-16 02:45:00 0.3350 0.3000 0.0350
2019-12-16 03:00:00 0.3000 0.3000 0.0000
2019-12-16 03:15:00 0.3120 0.3000 0.0120
2019-12-16 03:30:00 0.3220 0.3000 0.0220
2019-12-16 03:45:00 0.3340 0.3000 0.0340
2019-12-16 04:00:00 0.3370 0.3000 0.0370
2019-12-16 04:15:00 0.3330 0.3000 0.0330
2019-12-16 04:30:00 0.3350 0.3000 0.0350
2019-12-16 04:45:00 0.3060 0.3000 0.0060
2019-12-16 05:00:00 0.3070 0.3000 0.0070
2019-12-16 05:15:00 0.3180 0.3000 0.0180
2019-12-16 05:30:00 0.3170 0.3000 0.0170
2019-12-16 05:45:00 0.3030 0.3000 0.0030
2019-12-16 06:00:00 0.3120 0.3000 0.0120
2019-12-16 06:15:00 0.3060 0.3000 0.0060
2019-12-16 06:30:00 0.3330 0.3000 0.0330
2019-12-16 06:45:00 0.3120 0.3000 0.0120
2019-12-16 07:00:00 0.3290 0.3000 0.0290
2019-12-16 07:15:00 0.3070 0.3000 0.0070
2019-12-16 07:30:00 0.3340 0.3000 0.0340
2019-12-16 07:45:00 0.3020 0.3000 0.0020
2019-12-16 08:00:00 0.3100 0.3000 0.0100
2019-12-16 08:15:00 0.3010 0.3000 0.0010
2019-12-16 08:30:00 0.3240 0.3000 0.0240
2019-12-16 08:45:00 0.3290 0.3000 0.0290
2019-12-16 09:00:00 0.3300 0.3000 0.0300
2019-12-16 09:15:00 0.3230 0.3000 0.0230
2019-12-16 09:30:00 0.3160 0.3000 0.0160
2019-12-16 09:45:00 0.3000 0.3000 0.0000
2019-12-16 10:00:00 0.3190 0.3000 0.0190
2019-12-16 10:15:00 0.3130 0.3000 0.0130
Home | Water Discharge Data | Contact Us
©CopyRights 2019. Himachal Pradesh Power Corporation Ltd, Integrated Kashang HEP Stage - I